Check out our new PWSWeather beta!
PWSweather.com
Personal Weather Stations
Station Observations

AwhituWaiuku, CA 268400

Lat: -37.058, Lon: -174.6346

Elevation: 250

Station Type: Personal

http://www.weather-display.com/windy/gb/grahamsbeach.htm

Latest ConditionsUpdated 10:30:04 PM GMT-12:48 Tuesday, Feb 25, 2020
Currently Today's Max Today's Min Today's Average
Temperature 62.8°F17.1°C 77.5°F25.3°C 60.5°F15.8°C 67.6°F19.8°C
Dew Point 59.8°F15.4°C 64.3°F17.9°C 57.6°F14.2°C 61.1°F16.2°C
Winds 2.3 mph ESE3.7 kmh ESE 13.8 mph -22.2 kmh - - 5.8 mph 9.3 kmh
Wind Gusts 2.3 mph3.7 kmh 19.6 mph31.5 kmh - -
Humidity 90% 92% 62% 80%
Pressure 30.00 in1015.9 mb 30.04 in1017.3 mb 29.96 in1014.6 mb -
Hour Temp Dew Point Humidity Winds Wind Gusts Pressure Precip Precip Rate Daily Precip Total
10:30 PM 62.8°F17.1°C 59.8°F15.4°C 90% 2.3 mph ESE3.7 kmh ESE 2.3 mph3.7 kmh 30.00 in1015.9 mb - 0.00 in0.0 mm 0.00 in0.0 mm
10:00 PM 62.4°F16.9°C 58.8°F14.9°C 88% Calm Calm 1.2 mph1.9 kmh 30.00 in1015.9 mb - 0.00 in0.0 mm 0.00 in0.0 mm
09:30 PM 63.6°F17.6°C 59.7°F15.4°C 87% 1.2 mph S1.9 kmh S 1.2 mph1.9 kmh 30.00 in1015.9 mb - 0.00 in0.0 mm 0.00 in0.0 mm
09:00 PM 64.1°F17.8°C 60.2°F15.7°C 87% Calm Calm 1.2 mph1.9 kmh 30.00 in1015.9 mb - 0.00 in0.0 mm 0.00 in0.0 mm
08:30 PM 64.6°F18.1°C 60.3°F15.7°C 86% Calm Calm -- 29.99 in1015.6 mb - 0.00 in0.0 mm 0.00 in0.0 mm
08:00 PM 64.9°F18.3°C 60.3°F15.7°C 85% 1.2 mph S1.9 kmh S 2.3 mph3.7 kmh 29.98 in1015.2 mb - 0.00 in0.0 mm 0.00 in0.0 mm
07:30 PM 65.4°F18.6°C 60.4°F15.8°C 84% 3.5 mph S5.6 kmh S 4.6 mph7.4 kmh 29.97 in1014.9 mb - 0.00 in0.0 mm 0.00 in0.0 mm
07:00 PM 66.2°F19.0°C 60.5°F15.8°C 82% 4.6 mph SW7.4 kmh SW 5.8 mph9.3 kmh 29.96 in1014.6 mb - 0.00 in0.0 mm 0.00 in0.0 mm
06:30 PM 67.6°F19.8°C 60.9°F16.1°C 79% 5.8 mph WSW9.3 kmh WSW 8.1 mph13.0 kmh 29.96 in1014.6 mb - 0.00 in0.0 mm 0.00 in0.0 mm
06:00 PM 68.9°F20.5°C 61.4°F16.3°C 77% 6.9 mph SW11.1 kmh SW 9.2 mph14.8 kmh 29.96 in1014.6 mb - 0.00 in0.0 mm 0.00 in0.0 mm
05:30 PM 69.6°F20.9°C 62.1°F16.7°C 77% 11.5 mph SW18.5 kmh SW 16.1 mph25.9 kmh 29.96 in1014.6 mb - 0.00 in0.0 mm 0.00 in0.0 mm
05:00 PM 70.6°F21.4°C 62.3°F16.8°C 75% 9.2 mph WSW14.8 kmh WSW 11.5 mph18.5 kmh 29.96 in1014.6 mb - 0.00 in0.0 mm 0.00 in0.0 mm
04:30 PM 71.0°F21.7°C 62.7°F17.1°C 75% 10.4 mph SW16.7 kmh SW 16.1 mph25.9 kmh 29.96 in1014.6 mb - 0.00 in0.0 mm 0.00 in0.0 mm
04:00 PM 72.7°F22.6°C 62.7°F17.1°C 71% 12.7 mph SW20.4 kmh SW 15.0 mph24.1 kmh 29.96 in1014.6 mb - 0.00 in0.0 mm 0.00 in0.0 mm
03:30 PM 74.0°F23.3°C 63.6°F17.6°C 70% 12.7 mph SW20.4 kmh SW 17.3 mph27.8 kmh 29.96 in1014.6 mb - 0.00 in0.0 mm 0.00 in0.0 mm
03:00 PM 74.2°F23.4°C 63.4°F17.4°C 69% 9.2 mph SW14.8 kmh SW 11.5 mph18.5 kmh 29.96 in1014.6 mb - 0.00 in0.0 mm 0.00 in0.0 mm
02:30 PM 75.2°F24.0°C 64.3°F17.9°C 69% 11.5 mph WSW18.5 kmh WSW 17.3 mph27.8 kmh 29.97 in1014.9 mb - 0.00 in0.0 mm 0.00 in0.0 mm
02:00 PM 76.0°F24.4°C 64.2°F17.9°C 67% 12.7 mph SW20.4 kmh SW 15.0 mph24.1 kmh 29.98 in1015.2 mb - 0.00 in0.0 mm 0.00 in0.0 mm
01:30 PM 76.3°F24.6°C 64.1°F17.8°C 66% 10.4 mph WSW16.7 kmh WSW 19.6 mph31.5 kmh 29.98 in1015.2 mb - 0.00 in0.0 mm 0.00 in0.0 mm
01:00 PM 76.4°F24.7°C 63.8°F17.7°C 65% 11.5 mph SW18.5 kmh SW 15.0 mph24.1 kmh 29.99 in1015.6 mb - 0.00 in0.0 mm 0.00 in0.0 mm
12:30 PM 76.3°F24.6°C 64.1°F17.8°C 66% 12.7 mph WSW20.4 kmh WSW 15.0 mph24.1 kmh 29.99 in1015.6 mb - 0.00 in0.0 mm 0.00 in0.0 mm
12:00 PM 76.3°F24.6°C 63.7°F17.6°C 65% 10.4 mph WSW16.7 kmh WSW 12.7 mph20.4 kmh 29.99 in1015.6 mb - 0.00 in0.0 mm 0.00 in0.0 mm
11:30 AM 77.5°F25.3°C 63.4°F17.4°C 62% 10.4 mph WSW16.7 kmh WSW 11.5 mph18.5 kmh 30.00 in1015.9 mb - 0.00 in0.0 mm 0.00 in0.0 mm
11:00 AM 75.1°F23.9°C 63.8°F17.7°C 68% 13.8 mph WNW22.2 kmh WNW 13.8 mph22.2 kmh 30.00 in1015.9 mb - 0.00 in0.0 mm 0.00 in0.0 mm
10:30 AM 74.2°F23.4°C 63.8°F17.7°C 70% 11.5 mph NW18.5 kmh NW 11.5 mph18.5 kmh 30.01 in1016.3 mb - 0.00 in0.0 mm 0.00 in0.0 mm
10:00 AM 72.6°F22.6°C 63.4°F17.4°C 73% 10.4 mph NW16.7 kmh NW 11.5 mph18.5 kmh 30.01 in1016.3 mb - 0.00 in0.0 mm 0.00 in0.0 mm
09:30 AM 71.6°F22.0°C 62.9°F17.2°C 74% 10.4 mph WNW16.7 kmh WNW 12.7 mph20.4 kmh 30.01 in1016.3 mb - 0.00 in0.0 mm 0.00 in0.0 mm
09:00 AM 70.6°F21.4°C 63.0°F17.2°C 77% 9.2 mph W14.8 kmh W 10.4 mph16.7 kmh 30.01 in1016.3 mb - 0.00 in0.0 mm 0.00 in0.0 mm
08:30 AM 69.5°F20.8°C 62.7°F17.1°C 79% 5.8 mph W9.3 kmh W 6.9 mph11.1 kmh 30.01 in1016.3 mb - 0.00 in0.0 mm 0.00 in0.0 mm
08:00 AM 67.6°F19.8°C 62.2°F16.8°C 83% 2.3 mph W3.7 kmh W 3.5 mph5.6 kmh 30.02 in1016.6 mb - 0.00 in0.0 mm 0.00 in0.0 mm
07:30 AM 65.3°F18.5°C 60.7°F15.9°C 85% Calm Calm -- 30.02 in1016.6 mb - 0.00 in0.0 mm 0.00 in0.0 mm
07:00 AM 63.3°F17.4°C 59.0°F15.0°C 86% 3.5 mph SSW5.6 kmh SSW 3.5 mph5.6 kmh 30.01 in1016.3 mb - 0.00 in0.0 mm 0.00 in0.0 mm
06:30 AM 62.8°F17.1°C 58.6°F14.8°C 86% 3.5 mph SW5.6 kmh SW 3.5 mph5.6 kmh 30.01 in1016.3 mb - 0.00 in0.0 mm 0.00 in0.0 mm
06:00 AM 63.2°F17.3°C 58.9°F14.9°C 86% 3.5 mph SW5.6 kmh SW 4.6 mph7.4 kmh 30.01 in1016.3 mb - 0.00 in0.0 mm 0.00 in0.0 mm
05:30 AM 62.7°F17.1°C 58.8°F14.9°C 87% 3.5 mph SW5.6 kmh SW 3.5 mph5.6 kmh 30.00 in1015.9 mb - 0.00 in0.0 mm 0.00 in0.0 mm
05:00 AM 62.7°F17.1°C 58.8°F14.9°C 87% 4.6 mph WSW7.4 kmh WSW 8.1 mph13.0 kmh 30.00 in1015.9 mb - 0.00 in0.0 mm 0.00 in0.0 mm
04:30 AM 62.5°F16.9°C 59.2°F15.1°C 89% 3.5 mph SW5.6 kmh SW 4.6 mph7.4 kmh 30.01 in1016.3 mb - 0.00 in0.0 mm 0.00 in0.0 mm
04:00 AM 62.9°F17.2°C 59.6°F15.3°C 89% 2.3 mph WSW3.7 kmh WSW 3.5 mph5.6 kmh 30.01 in1016.3 mb - 0.00 in0.0 mm 0.00 in0.0 mm
03:30 AM 61.8°F16.6°C 59.1°F15.1°C 91% 3.5 mph SW5.6 kmh SW 3.5 mph5.6 kmh 30.01 in1016.3 mb - 0.00 in0.0 mm 0.00 in0.0 mm
03:00 AM 61.5°F16.4°C 59.2°F15.1°C 92% 1.2 mph WSW1.9 kmh WSW 2.3 mph3.7 kmh 30.02 in1016.6 mb - 0.00 in0.0 mm 0.00 in0.0 mm
02:30 AM 60.8°F16.0°C 58.4°F14.7°C 92% 2.3 mph WSW3.7 kmh WSW 3.5 mph5.6 kmh 30.02 in1016.6 mb - 0.00 in0.0 mm 0.00 in0.0 mm
02:00 AM 60.7°F15.9°C 58.1°F14.5°C 91% Calm Calm -- 30.02 in1016.6 mb - 0.00 in0.0 mm 0.00 in0.0 mm
01:30 AM 60.6°F15.9°C 58.0°F14.4°C 91% Calm Calm -- 30.02 in1016.6 mb - 0.00 in0.0 mm 0.00 in0.0 mm
01:00 AM 60.5°F15.8°C 57.6°F14.2°C 90% Calm Calm -- 30.04 in1017.3 mb - 0.00 in0.0 mm 0.00 in0.0 mm
12:30 AM 60.8°F16.0°C 58.2°F14.6°C 91% Calm Calm -- 30.04 in1017.3 mb - 0.00 in0.0 mm 0.00 in0.0 mm
12:00 AM 61.3°F16.3°C 58.1°F14.5°C 89% 1.2 mph S1.9 kmh S 2.3 mph3.7 kmh 30.04 in1017.3 mb - 0.00 in0.0 mm 0.00 in0.0 mm